Time;durP1;ratioP1;P1;durP2;ratioP2;P2;SDS_P1;SDS_P2;PMS_P1;PMS_P2;Temp;Humidity;BMP_temperature;BMP_pressure;BME280_temperature;BME280_humidity;BME280_pressure;Samples;Min_cycle;Max_cycle;Signal;HPM_P1;HPM_P2
2021/03/19 00:00:08;;;;;;;3.40;3.10;;;3.20;99.90;;;;;;4989638;28;20227;-68
2021/03/19 00:02:34;;;;;;;4.57;2.90;;;3.10;99.90;;;;;;4979677;28;20561;-69
2021/03/19 00:05:03;;;;;;;5.72;3.60;;;3.10;99.90;;;;;;4982159;28;20203;-71
2021/03/19 00:07:41;;;;;;;4.53;3.40;;;3.10;99.90;;;;;;4990805;28;20196;-69
2021/03/19 00:10:09;;;;;;;4.93;2.75;;;3.10;99.90;;;;;;4977274;28;20354;-69
2021/03/19 00:12:36;;;;;;;4.55;3.17;;;3.10;99.90;;;;;;4983809;28;20203;-68
2021/03/19 00:15:03;;;;;;;3.00;2.70;;;3.10;99.90;;;;;;4983884;28;20210;-68
2021/03/19 00:17:30;;;;;;;4.30;3.60;;;3.10;99.90;;;;;;4987158;28;20220;-70
2021/03/19 00:19:57;;;;;;;6.20;2.78;;;3.10;99.90;;;;;;4978251;28;20258;-68
2021/03/19 00:22:24;;;;;;;4.13;3.20;;;3.10;99.90;;;;;;4992981;28;20216;-68
2021/03/19 00:24:51;;;;;;;5.95;3.30;;;3.00;99.90;;;;;;4987095;28;20212;-69
2021/03/19 00:27:18;;;;;;;3.13;2.75;;;3.10;99.90;;;;;;4981037;28;20201;-69
2021/03/19 00:29:45;;;;;;;7.70;3.45;;;3.00;99.90;;;;;;4979744;28;20203;-68
2021/03/19 00:32:11;;;;;;;6.35;3.55;;;3.00;99.90;;;;;;4980373;28;20289;-68
2021/03/19 00:34:38;;;;;;;3.40;2.83;;;3.00;99.90;;;;;;4979727;28;20213;-68
2021/03/19 00:37:05;;;;;;;7.32;3.78;;;3.00;99.90;;;;;;4989749;28;20221;-68
2021/03/19 00:39:33;;;;;;;4.75;3.53;;;2.90;99.90;;;;;;4981801;28;20664;-68
2021/03/19 00:42:01;;;;;;;4.70;3.25;;;2.90;99.90;;;;;;4979502;28;20657;-69
2021/03/19 00:44:28;;;;;;;6.50;3.13;;;2.90;99.90;;;;;;4980150;28;20260;-68
2021/03/19 00:46:54;;;;;;;3.42;3.10;;;2.90;99.90;;;;;;4993175;28;20224;-68
2021/03/19 00:49:21;;;;;;;3.53;3.22;;;2.90;99.90;;;;;;4991135;28;20301;-69
2021/03/19 00:51:48;;;;;;;6.70;3.60;;;2.90;99.90;;;;;;4987778;28;20274;-69
2021/03/19 00:54:15;;;;;;;5.40;3.00;;;2.80;99.90;;;;;;4993279;28;21482;-69
2021/03/19 00:56:42;;;;;;;5.55;3.38;;;2.80;99.90;;;;;;4985753;28;20235;-69
2021/03/19 00:59:09;;;;;;;5.07;4.03;;;2.80;99.90;;;;;;4987908;28;20217;-72
2021/03/19 01:01:36;;;;;;;4.63;4.13;;;2.70;99.90;;;;;;4978107;28;20288;-67
2021/03/19 01:04:03;;;;;;;4.40;3.40;;;2.80;99.90;;;;;;4987249;28;20209;-68
2021/03/19 01:06:30;;;;;;;4.13;3.30;;;2.70;99.90;;;;;;4980985;28;20206;-68
2021/03/19 01:08:57;;;;;;;7.57;3.42;;;2.60;99.90;;;;;;4986413;28;20214;-70
2021/03/19 01:11:24;;;;;;;4.43;2.92;;;2.60;99.90;;;;;;4987463;28;20233;-68
2021/03/19 01:13:51;;;;;;;3.88;3.00;;;2.60;99.90;;;;;;4983646;28;20204;-69
2021/03/19 01:16:18;;;;;;;7.50;3.50;;;2.60;99.90;;;;;;4989049;28;20221;-69
2021/03/19 01:18:45;;;;;;;3.35;3.05;;;2.60;99.90;;;;;;4991710;28;20204;-68
2021/03/19 01:21:13;;;;;;;8.63;3.35;;;2.60;99.90;;;;;;4991167;28;20240;-69
2021/03/19 01:23:39;;;;;;;5.70;3.25;;;2.60;99.90;;;;;;4995388;28;20611;-68
2021/03/19 01:26:06;;;;;;;4.05;3.50;;;2.60;99.90;;;;;;4996264;28;20231;-69
2021/03/19 01:28:33;;;;;;;3.00;2.80;;;2.60;99.90;;;;;;4995308;28;20209;-68
2021/03/19 01:31:02;;;;;;;5.43;3.00;;;2.60;99.90;;;;;;4996019;28;20227;-68
2021/03/19 01:33:28;;;;;;;3.95;3.22;;;2.60;99.90;;;;;;4987774;28;20635;-68
2021/03/19 01:35:55;;;;;;;4.05;3.65;;;2.60;99.90;;;;;;4996567;28;20197;-71
2021/03/19 01:38:22;;;;;;;3.15;2.58;;;2.50;99.90;;;;;;4985593;28;20202;-72
2021/03/19 01:40:49;;;;;;;3.35;2.88;;;2.50;99.90;;;;;;4991794;28;20225;-71
2021/03/19 01:43:16;;;;;;;5.07;3.50;;;2.50;99.90;;;;;;4987972;28;20218;-70
2021/03/19 01:46:16;;;;;;;2.58;2.38;;;2.40;99.90;;;;;;4995874;28;20197;-71
2021/03/19 01:49:20;;;;;;;2.65;2.30;;;2.50;99.90;;;;;;4998254;28;20193;-71
2021/03/19 01:52:24;;;;;;;6.10;3.72;;;2.40;99.90;;;;;;4989952;28;20226;-71
2021/03/19 01:55:28;;;;;;;6.60;3.25;;;2.40;99.90;;;;;;4992470;28;20558;-71
2021/03/19 01:58:31;;;;;;;3.88;2.80;;;2.40;99.90;;;;;;4994925;28;20228;-71
2021/03/19 02:01:35;;;;;;;4.22;3.00;;;2.30;99.90;;;;;;4990589;28;20231;-71
2021/03/19 02:04:40;;;;;;;6.32;3.53;;;2.30;99.90;;;;;;4986149;28;20212;-69
2021/03/19 02:07:43;;;;;;;4.00;2.60;;;2.40;99.90;;;;;;4988755;28;20258;-71
2021/03/19 02:10:47;;;;;;;6.50;3.10;;;2.40;99.90;;;;;;4988232;28;20229;-71
2021/03/19 02:13:51;;;;;;;3.83;3.10;;;2.30;99.90;;;;;;4995317;28;20205;-71
2021/03/19 02:16:55;;;;;;;4.00;3.45;;;2.30;99.90;;;;;;4983156;28;20317;-71
2021/03/19 02:19:59;;;;;;;3.20;2.72;;;2.30;99.90;;;;;;4983904;28;20228;-71
2021/03/19 02:23:04;;;;;;;3.45;3.15;;;2.30;99.90;;;;;;4998868;28;20205;-70
2021/03/19 02:26:08;;;;;;;4.18;3.10;;;2.20;99.90;;;;;;4997134;28;20201;-70
2021/03/19 02:29:12;;;;;;;3.13;2.83;;;2.20;99.90;;;;;;4998165;28;20209;-70
2021/03/19 02:32:01;;;;;;;6.93;3.67;;;2.20;99.90;;;;;;4991047;28;20230;-71
2021/03/19 02:34:33;;;;;;;3.75;2.95;;;2.20;99.90;;;;;;4979802;28;20293;-70
2021/03/19 02:37:00;;;;;;;3.38;2.90;;;2.20;99.90;;;;;;4988381;28;20229;-70
2021/03/19 02:39:26;;;;;;;5.25;4.75;;;2.10;99.90;;;;;;4986799;28;20240;-70
2021/03/19 02:41:53;;;;;;;5.60;2.72;;;2.20;99.90;;;;;;4987291;28;20677;-69
2021/03/19 02:44:20;;;;;;;3.15;2.85;;;2.20;99.90;;;;;;4990418;28;20213;-70
2021/03/19 02:46:47;;;;;;;3.60;3.10;;;2.20;99.90;;;;;;4994543;28;20560;-70
2021/03/19 02:49:15;;;;;;;5.78;3.13;;;2.10;99.90;;;;;;4983222;28;20210;-70
2021/03/19 02:51:41;;;;;;;3.10;2.72;;;2.10;99.90;;;;;;4994067;28;20222;-71
2021/03/19 02:54:08;;;;;;;4.40;3.42;;;2.10;99.90;;;;;;4986094;28;20621;-70
2021/03/19 02:56:36;;;;;;;8.40;2.78;;;2.10;99.90;;;;;;4991468;28;20670;-69
2021/03/19 02:59:03;;;;;;;4.22;2.92;;;2.10;99.90;;;;;;4993842;28;20205;-70
2021/03/19 03:01:29;;;;;;;4.07;2.70;;;2.10;99.90;;;;;;4995170;28;20237;-70
2021/03/19 03:03:56;;;;;;;4.80;2.70;;;2.10;99.90;;;;;;4993756;28;20727;-71
2021/03/19 03:06:36;;;;;;;3.15;2.85;;;2.00;99.90;;;;;;4990134;28;20206;-70
2021/03/19 03:09:07;;;;;;;4.45;3.42;;;2.00;99.90;;;;;;4978491;28;20206;-70
2021/03/19 03:11:36;;;;;;;6.45;3.10;;;2.00;99.90;;;;;;4992203;28;20382;-70
2021/03/19 03:14:05;;;;;;;2.75;2.55;;;2.00;99.90;;;;;;4994398;28;20575;-70
2021/03/19 03:16:32;;;;;;;3.88;2.83;;;2.00;99.90;;;;;;4978479;28;20226;-70
2021/03/19 03:18:59;;;;;;;5.82;3.60;;;2.00;99.90;;;;;;4986645;28;20212;-71
2021/03/19 03:21:25;;;;;;;5.03;3.30;;;2.00;99.90;;;;;;4986125;28;20229;-70
2021/03/19 03:23:53;;;;;;;3.03;2.72;;;2.00;99.90;;;;;;4990964;28;20233;-71
2021/03/19 03:26:20;;;;;;;4.47;3.00;;;2.00;99.90;;;;;;4985052;28;20202;-70
2021/03/19 03:28:47;;;;;;;4.00;3.60;;;2.00;99.90;;;;;;4984975;28;20201;-70
2021/03/19 03:31:14;;;;;;;4.75;3.72;;;1.90;99.90;;;;;;4984371;28;20229;-70
2021/03/19 03:33:40;;;;;;;3.10;2.80;;;2.00;99.90;;;;;;4983277;28;20220;-71
2021/03/19 03:36:08;;;;;;;5.75;3.10;;;1.90;99.90;;;;;;4985014;28;20213;-70
2021/03/19 03:38:35;;;;;;;6.93;2.50;;;1.90;99.90;;;;;;4977290;28;20574;-70
2021/03/19 03:41:05;;;;;;;3.70;2.20;;;1.90;99.90;;;;;;4983231;28;20225;-70
2021/03/19 03:43:33;;;;;;;3.25;2.60;;;1.80;99.90;;;;;;4980340;28;20206;-70
2021/03/19 03:46:00;;;;;;;6.60;3.13;;;1.90;99.90;;;;;;4984345;28;20210;-70
2021/03/19 03:48:30;;;;;;;4.65;3.17;;;1.90;99.90;;;;;;4979981;28;20207;-70
2021/03/19 03:50:59;;;;;;;2.45;2.25;;;1.90;99.90;;;;;;4989684;28;20577;-71
2021/03/19 03:53:26;;;;;;;3.30;2.55;;;1.90;99.90;;;;;;4986959;28;20556;-70
2021/03/19 03:55:52;;;;;;;3.55;2.38;;;2.00;99.90;;;;;;4986672;28;20199;-70
2021/03/19 03:58:20;;;;;;;4.50;3.17;;;1.90;99.90;;;;;;4977478;28;20225;-72
2021/03/19 04:00:47;;;;;;;3.63;3.00;;;1.90;99.90;;;;;;4994209;28;21109;-70
2021/03/19 04:03:14;;;;;;;4.35;3.15;;;1.90;99.90;;;;;;4987165;28;20696;-70
2021/03/19 04:05:43;;;;;;;3.30;3.00;;;2.00;99.90;;;;;;4994814;28;20304;-71
2021/03/19 04:08:12;;;;;;;2.97;2.60;;;2.00;99.90;;;;;;4992506;28;20209;-70
2021/03/19 04:10:40;;;;;;;3.20;2.90;;;1.90;99.90;;;;;;4982294;28;20295;-71
2021/03/19 04:13:07;;;;;;;3.95;2.90;;;1.90;99.90;;;;;;4979963;28;20210;-71
2021/03/19 04:15:36;;;;;;;3.38;3.08;;;1.90;99.90;;;;;;4979727;28;20206;-70
2021/03/19 04:18:05;;;;;;;3.05;2.75;;;1.90;99.90;;;;;;4994236;28;20234;-71
2021/03/19 04:20:33;;;;;;;2.80;2.40;;;1.90;99.90;;;;;;4993606;28;20225;-71
2021/03/19 04:22:59;;;;;;;6.22;3.22;;;1.90;99.90;;;;;;4981306;28;20203;-71
2021/03/19 04:25:26;;;;;;;4.18;3.10;;;1.90;99.90;;;;;;4992792;28;20208;-71
2021/03/19 04:27:55;;;;;;;4.00;2.75;;;1.90;99.90;;;;;;4993833;28;20206;-70
2021/03/19 04:30:25;;;;;;;4.93;3.28;;;1.90;99.90;;;;;;4993669;28;20226;-71
2021/03/19 04:32:54;;;;;;;5.95;3.63;;;1.90;99.90;;;;;;4986070;28;20205;-71
2021/03/19 04:35:22;;;;;;;3.70;3.00;;;1.90;99.90;;;;;;4985177;28;20208;-71
2021/03/19 04:37:50;;;;;;;4.40;3.40;;;1.90;99.90;;;;;;4993858;28;20225;-70
2021/03/19 04:40:18;;;;;;;4.55;3.80;;;1.80;99.90;;;;;;4987437;28;20305;-71
2021/03/19 04:42:44;;;;;;;3.60;3.10;;;1.90;99.90;;;;;;4988540;28;20946;-71
2021/03/19 04:45:12;;;;;;;4.55;2.78;;;1.80;99.90;;;;;;4983866;28;20225;-70
2021/03/19 04:47:39;;;;;;;7.70;3.28;;;1.90;99.90;;;;;;4981960;28;20255;-70
2021/03/19 04:50:10;;;;;;;4.63;3.75;;;1.90;99.90;;;;;;4994438;28;20229;-70
2021/03/19 04:52:36;;;;;;;4.20;3.60;;;1.90;99.90;;;;;;4983479;28;20203;-71
2021/03/19 04:55:04;;;;;;;4.70;3.45;;;1.90;99.90;;;;;;4992678;28;20209;-70
2021/03/19 04:57:31;;;;;;;4.82;3.50;;;1.90;99.90;;;;;;4985260;28;20271;-70
2021/03/19 04:59:58;;;;;;;4.38;3.83;;;1.80;99.90;;;;;;4980428;28;20226;-71
2021/03/19 05:02:33;;;;;;;4.45;4.05;;;1.80;99.90;;;;;;4981416;28;20236;-69
2021/03/19 05:05:00;;;;;;;6.93;3.47;;;1.80;99.90;;;;;;4986138;28;20203;-71
2021/03/19 05:07:28;;;;;;;4.07;3.67;;;1.80;99.90;;;;;;4993258;28;20285;-70
2021/03/19 05:09:55;;;;;;;4.97;4.00;;;1.70;99.90;;;;;;4979046;28;20231;-70
2021/03/19 05:12:21;;;;;;;6.93;4.07;;;1.70;99.90;;;;;;4993979;28;20213;-70
2021/03/19 05:14:49;;;;;;;6.80;4.07;;;1.80;99.90;;;;;;4992932;28;20208;-70
2021/03/19 05:17:16;;;;;;;4.28;3.42;;;1.70;99.90;;;;;;4984919;28;20225;-70
2021/03/19 05:19:42;;;;;;;5.38;3.92;;;1.80;99.90;;;;;;4986440;28;20606;-69
2021/03/19 05:22:09;;;;;;;5.68;3.97;;;1.80;99.90;;;;;;4989437;28;20206;-68
2021/03/19 05:24:37;;;;;;;4.30;3.60;;;1.80;99.90;;;;;;4992516;28;20208;-68
2021/03/19 05:27:04;;;;;;;6.05;4.53;;;1.80;99.90;;;;;;4988907;28;20267;-67
2021/03/19 05:29:31;;;;;;;4.80;3.88;;;1.90;99.90;;;;;;4974978;28;20202;-69
2021/03/19 05:31:58;;;;;;;4.10;3.70;;;1.90;99.90;;;;;;4982066;28;20198;-68
2021/03/19 05:34:25;;;;;;;5.28;3.95;;;2.00;99.90;;;;;;4980164;28;20858;-68
2021/03/19 05:36:52;;;;;;;7.13;4.88;;;2.00;99.90;;;;;;4980562;28;20236;-68
2021/03/19 05:39:19;;;;;;;6.05;3.97;;;1.90;99.90;;;;;;4976548;28;21001;-69
2021/03/19 05:41:46;;;;;;;8.90;6.40;;;2.00;99.90;;;;;;4983323;28;20221;-68
2021/03/19 05:44:15;;;;;;;6.15;3.15;;;2.20;99.90;;;;;;4981164;28;20205;-70
2021/03/19 05:46:44;;;;;;;5.05;4.05;;;2.20;99.90;;;;;;4979309;28;20447;-71
2021/03/19 05:49:20;;;;;;;5.38;4.85;;;2.20;99.90;;;;;;4987529;28;20209;-70
2021/03/19 05:51:49;;;;;;;4.97;4.15;;;2.30;99.90;;;;;;4982287;28;20217;-70
2021/03/19 05:54:25;;;;;;;6.97;4.65;;;2.30;99.90;;;;;;4992251;28;20213;-70
2021/03/19 05:57:14;;;;;;;6.35;4.82;;;2.30;99.90;;;;;;4984759;28;20286;-71
2021/03/19 05:59:45;;;;;;;5.88;4.25;;;2.30;99.90;;;;;;4980908;28;20225;-70
2021/03/19 06:02:22;;;;;;;6.00;4.60;;;2.30;99.90;;;;;;4980015;28;20217;-72
2021/03/19 06:05:09;;;;;;;7.35;5.65;;;2.30;99.90;;;;;;4979816;28;20208;-71
2021/03/19 06:07:45;;;;;;;5.00;4.50;;;2.30;99.90;;;;;;4993769;28;20444;-71
2021/03/19 06:10:22;;;;;;;6.63;4.28;;;2.40;99.90;;;;;;4978712;28;20230;-69
2021/03/19 06:12:53;;;;;;;6.30;4.13;;;2.50;99.90;;;;;;4991546;28;20201;-70
2021/03/19 06:15:30;;;;;;;4.65;3.95;;;2.50;99.90;;;;;;4987194;28;20204;-71
2021/03/19 06:17:58;;;;;;;8.60;5.43;;;2.60;99.90;;;;;;4981817;28;20709;-72
2021/03/19 06:20:27;;;;;;;4.90;3.92;;;2.70;99.90;;;;;;4990162;28;20217;-71
2021/03/19 06:23:05;;;;;;;4.80;4.35;;;2.80;99.90;;;;;;4995289;28;20592;-71
2021/03/19 06:25:39;;;;;;;5.43;4.55;;;3.00;99.90;;;;;;4994251;28;20213;-69
2021/03/19 06:28:23;;;;;;;5.45;4.30;;;3.20;99.90;;;;;;4986440;28;20252;-71
2021/03/19 06:30:50;;;;;;;6.15;4.10;;;3.40;99.90;;;;;;4982262;28;20240;-70
2021/03/19 06:33:28;;;;;;;7.07;5.10;;;3.70;99.90;;;;;;4987310;28;20217;-71
2021/03/19 06:36:12;;;;;;;7.22;5.30;;;3.90;99.90;;;;;;4992954;28;20216;-70
2021/03/19 06:38:41;;;;;;;8.70;4.78;;;4.10;99.90;;;;;;4977407;28;20240;-70
2021/03/19 06:41:21;;;;;;;5.20;3.72;;;4.90;99.90;;;;;;4983184;28;20235;-69
2021/03/19 06:43:50;;;;;;;4.45;3.55;;;6.20;99.90;;;;;;4985506;28;20207;-70
2021/03/19 06:46:20;;;;;;;6.10;4.43;;;7.80;99.90;;;;;;4985562;28;20215;-70
2021/03/19 06:49:00;;;;;;;4.70;4.22;;;9.40;98.00;;;;;;4984174;28;20243;-70
2021/03/19 06:51:29;;;;;;;5.05;3.40;;;10.90;93.50;;;;;;4983631;28;20233;-71
2021/03/19 06:53:59;;;;;;;6.07;3.45;;;12.40;90.30;;;;;;4989940;28;20206;-71
2021/03/19 06:56:26;;;;;;;6.25;3.40;;;13.50;84.30;;;;;;4989794;28;20209;-71
2021/03/19 06:58:54;;;;;;;4.55;3.80;;;14.60;80.70;;;;;;4994458;28;20553;-71
2021/03/19 07:01:39;;;;;;;5.70;4.18;;;15.40;75.70;;;;;;4985882;28;20230;-71
2021/03/19 07:04:36;;;;;;;8.33;4.07;;;16.20;72.70;;;;;;4992207;28;20643;-70
2021/03/19 07:07:45;;;;;;;4.95;4.15;;;16.60;70.20;;;;;;4986106;28;20454;-71
2021/03/19 07:10:29;;;;;;;12.95;5.55;;;16.40;68.00;;;;;;4986816;28;20227;-72
2021/03/19 07:13:03;;;;;;;6.25;4.50;;;15.90;77.20;;;;;;4984765;28;20240;-72
2021/03/19 07:15:43;;;;;;;6.25;4.45;;;15.40;79.90;;;;;;4986751;28;20288;-72
2021/03/19 07:18:19;;;;;;;6.82;5.22;;;14.90;79.70;;;;;;4979493;28;20236;-71
2021/03/19 07:21:02;;;;;;;6.88;3.83;;;14.10;82.70;;;;;;4990507;28;20236;-71
2021/03/19 07:23:35;;;;;;;6.80;4.80;;;13.50;83.30;;;;;;4991619;28;20211;-71
2021/03/19 07:26:09;;;;;;;10.55;4.25;;;12.60;84.80;;;;;;4989971;28;20219;-72
2021/03/19 07:29:11;;;;;;;7.78;4.75;;;12.20;87.90;;;;;;4988750;28;20207;-71
2021/03/19 07:32:06;;;;;;;5.82;3.88;;;11.70;85.80;;;;;;4986106;28;20221;-70
2021/03/19 07:34:58;;;;;;;6.70;4.03;;;11.00;87.90;;;;;;4988356;28;20210;-70
2021/03/19 07:38:01;;;;;;;7.00;4.05;;;10.30;88.20;;;;;;4992517;28;20219;-71
2021/03/19 07:40:51;;;;;;;15.18;5.38;;;9.90;90.90;;;;;;4982845;28;20225;-72
2021/03/19 07:43:40;;;;;;;6.50;4.32;;;9.50;92.30;;;;;;4994093;28;20229;-70
2021/03/19 07:46:26;;;;;;;6.82;4.15;;;9.40;93.50;;;;;;4985706;28;20211;-71
2021/03/19 07:49:13;;;;;;;9.77;4.72;;;9.20;94.60;;;;;;4986813;28;20205;-71
2021/03/19 07:51:54;;;;;;;7.72;4.78;;;9.40;93.50;;;;;;4993521;28;20221;-69
2021/03/19 07:54:27;;;;;;;5.13;3.63;;;9.80;93.60;;;;;;4988298;28;20641;-71
2021/03/19 07:57:02;;;;;;;5.00;4.47;;;10.10;92.00;;;;;;4992985;28;20244;-71
2021/03/19 07:59:45;;;;;;;6.45;4.80;;;10.10;91.70;;;;;;4989412;28;20253;-70
2021/03/19 08:02:52;;;;;;;6.97;4.50;;;10.40;91.20;;;;;;4987456;28;20676;-70
2021/03/19 08:05:24;;;;;;;8.63;4.80;;;11.20;90.80;;;;;;4988827;28;20229;-72
2021/03/19 08:08:08;;;;;;;7.43;4.35;;;11.70;89.60;;;;;;4991491;28;20330;-69
2021/03/19 08:10:42;;;;;;;7.68;4.50;;;12.30;89.30;;;;;;4983477;28;20226;-70
2021/03/19 08:13:19;;;;;;;5.57;4.10;;;14.00;84.10;;;;;;4983919;28;20210;-71
2021/03/19 08:15:50;;;;;;;4.72;4.05;;;15.20;79.40;;;;;;4980966;28;20218;-72
2021/03/19 08:18:25;;;;;;;7.63;4.45;;;15.00;77.80;;;;;;4989986;28;20228;-72
2021/03/19 08:21:10;;;;;;;5.05;4.47;;;14.80;77.80;;;;;;4986887;28;20221;-71
2021/03/19 08:23:45;;;;;;;7.07;3.77;;;15.60;76.60;;;;;;4991506;28;20220;-73
2021/03/19 08:26:20;;;;;;;4.97;4.03;;;16.50;74.40;;;;;;4990528;28;20519;-71
2021/03/19 08:28:57;;;;;;;4.63;4.23;;;17.40;71.00;;;;;;4982708;28;20449;-73
2021/03/19 08:31:30;;;;;;;6.43;3.87;;;18.60;69.00;;;;;;4987090;28;21027;-70
2021/03/19 08:34:11;;;;;;;5.10;4.60;;;19.50;66.00;;;;;;4976436;28;20870;-70
2021/03/19 08:36:42;;;;;;;6.53;4.80;;;20.60;63.00;;;;;;4978352;28;20453;-71
2021/03/19 08:39:19;;;;;;;11.43;6.30;;;21.10;60.20;;;;;;4975628;28;20453;-71
2021/03/19 08:41:48;;;;;;;6.60;4.67;;;21.50;59.50;;;;;;4991877;28;20495;-72
2021/03/19 08:44:18;;;;;;;7.70;4.87;;;21.60;57.40;;;;;;4993469;28;20460;-71
2021/03/19 08:46:49;;;;;;;7.17;4.67;;;21.10;55.90;;;;;;4993199;28;20449;-71
2021/03/19 08:49:38;;;;;;;6.17;5.07;;;20.60;57.20;;;;;;4983426;28;20455;-72
2021/03/19 08:52:25;;;;;;;7.10;5.57;;;20.00;57.20;;;;;;4990595;28;20461;-71
2021/03/19 08:55:21;;;;;;;6.70;5.90;;;18.60;59.10;;;;;;4987151;28;20449;-70
2021/03/19 08:57:49;;;;;;;6.18;5.57;;;17.40;61.40;;;;;;4982574;28;20480;-72
2021/03/19 09:00:47;;;;;;;7.20;5.25;;;16.30;64.30;;;;;;4989121;28;20232;-70
2021/03/19 09:03:56;;;;;;;5.82;5.18;;;15.50;67.10;;;;;;4984596;28;20637;-71
2021/03/19 09:06:34;;;;;;;5.60;4.70;;;15.10;69.80;;;;;;4988348;28;20251;-70
2021/03/19 09:09:32;;;;;;;7.00;4.53;;;15.70;70.50;;;;;;4987850;28;20618;-72
2021/03/19 09:12:12;;;;;;;5.93;4.40;;;16.40;69.00;;;;;;4990575;28;20214;-71
2021/03/19 09:15:00;;;;;;;6.33;3.77;;;17.90;66.70;;;;;;4978145;28;20448;-71
2021/03/19 09:17:50;;;;;;;7.40;5.00;;;19.20;63.30;;;;;;4974283;28;20589;-72
2021/03/19 09:20:33;;;;;;;6.53;5.40;;;19.70;61.00;;;;;;4977335;28;20819;-72
2021/03/19 09:23:15;;;;;;;6.37;5.53;;;19.50;60.70;;;;;;4990047;28;20445;-71
2021/03/19 09:25:46;;;;;;;6.37;5.10;;;19.10;60.70;;;;;;4989465;28;20469;-72
2021/03/19 09:28:36;;;;;;;8.50;4.80;;;19.80;61.30;;;;;;4978826;28;20453;-74
2021/03/19 09:31:36;;;;;;;6.03;4.07;;;20.60;59.90;;;;;;4991813;28;20464;-70
2021/03/19 09:34:22;;;;;;;5.93;3.80;;;21.60;58.60;;;;;;4982296;28;20966;-71
2021/03/19 09:36:55;;;;;;;6.20;4.53;;;21.20;57.40;;;;;;4974754;28;20531;-72
2021/03/19 09:39:55;;;;;;;8.63;4.63;;;20.90;57.60;;;;;;4981870;28;20453;-71
2021/03/19 09:42:51;;;;;;;8.67;4.40;;;20.40;57.60;;;;;;4986719;28;20952;-71
2021/03/19 09:45:28;;;;;;;10.50;4.90;;;19.70;58.90;;;;;;4990046;28;20455;-70
2021/03/19 09:48:19;;;;;;;8.47;5.10;;;19.00;59.30;;;;;;4996576;28;20826;-71
2021/03/19 09:50:57;;;;;;;6.13;4.53;;;18.00;61.70;;;;;;4985901;28;20470;-71
2021/03/19 09:53:29;;;;;;;5.70;5.03;;;17.80;62.60;;;;;;4985320;28;20489;-70
2021/03/19 09:55:57;;;;;;;6.87;4.37;;;17.60;63.60;;;;;;4995424;28;20460;-71
2021/03/19 09:58:35;;;;;;;6.30;4.20;;;18.10;63.30;;;;;;4995489;28;20459;-72
2021/03/19 10:01:13;;;;;;;6.83;4.57;;;18.50;62.10;;;;;;4986478;28;20572;-70
2021/03/19 10:03:41;;;;;;;6.93;4.80;;;19.00;60.60;;;;;;4980252;28;20504;-73
2021/03/19 10:06:27;;;;;;;6.30;5.10;;;19.10;60.30;;;;;;4983523;28;20467;-72
2021/03/19 10:09:05;;;;;;;9.53;4.60;;;19.20;60.50;;;;;;4979869;28;20496;-72
2021/03/19 10:11:33;;;;;;;7.50;5.73;;;18.90;59.50;;;;;;4986611;28;20500;-72
2021/03/19 10:14:24;;;;;;;6.77;4.97;;;18.70;60.10;;;;;;4991722;28;20460;-71
2021/03/19 10:16:51;;;;;;;5.78;4.72;;;18.00;60.70;;;;;;4989309;28;20752;-71
2021/03/19 10:19:19;;;;;;;7.07;5.20;;;17.40;61.90;;;;;;4990598;28;20205;-71
2021/03/19 10:21:48;;;;;;;6.40;4.80;;;17.40;62.60;;;;;;4988576;28;20262;-72
2021/03/19 10:24:25;;;;;;;6.50;5.05;;;17.10;62.10;;;;;;4987825;28;20229;-74
2021/03/19 10:26:57;;;;;;;5.85;4.97;;;16.50;62.10;;;;;;4984678;28;20562;-72
2021/03/19 10:29:30;;;;;;;7.97;5.45;;;16.50;63.40;;;;;;4987008;28;20291;-69
2021/03/19 10:31:59;;;;;;;7.65;4.65;;;16.90;63.70;;;;;;4990314;28;20206;-70
2021/03/19 10:34:41;;;;;;;9.10;5.30;;;17.00;63.10;;;;;;4980494;28;20720;-74
2021/03/19 10:37:20;;;;;;;5.10;4.60;;;17.10;63.30;;;;;;4983884;28;20621;-73
2021/03/19 10:39:51;;;;;;;6.40;4.13;;;17.90;60.70;;;;;;4986890;28;20463;-72
2021/03/19 10:42:24;;;;;;;5.17;4.43;;;18.20;59.80;;;;;;4991121;28;20449;-72
2021/03/19 10:45:08;;;;;;;6.40;5.00;;;18.10;59.40;;;;;;4989709;28;20462;-73
2021/03/19 10:47:54;;;;;;;9.03;5.90;;;17.80;59.70;;;;;;4991424;28;21018;-71
2021/03/19 10:50:26;;;;;;;5.05;4.55;;;17.30;60.40;;;;;;4984957;28;20470;-72
2021/03/19 10:53:00;;;;;;;7.78;4.22;;;16.30;60.40;;;;;;4988758;28;20273;-71
2021/03/19 10:55:31;;;;;;;7.90;4.70;;;15.60;63.00;;;;;;4992553;28;20223;-71
2021/03/19 10:58:17;;;;;;;8.05;5.80;;;15.20;64.50;;;;;;4984917;28;20198;-72
2021/03/19 11:00:45;;;;;;;6.75;5.03;;;15.20;64.60;;;;;;4995007;28;20697;-70
2021/03/19 11:03:33;;;;;;;7.15;6.45;;;14.70;66.20;;;;;;4983596;28;20225;-71
2021/03/19 11:06:02;;;;;;;8.15;5.68;;;14.50;66.50;;;;;;4993414;28;20671;-70
2021/03/19 11:08:30;;;;;;;7.22;5.45;;;14.40;68.10;;;;;;4989817;28;20214;-72
2021/03/19 11:10:57;;;;;;;6.05;5.20;;;14.40;67.40;;;;;;4987134;28;20299;-72
2021/03/19 11:13:27;;;;;;;7.60;4.68;;;14.30;67.90;;;;;;4993119;28;20213;-70
2021/03/19 11:15:58;;;;;;;6.63;5.03;;;14.40;68.50;;;;;;4978636;28;20242;-70
2021/03/19 11:18:28;;;;;;;6.18;5.07;;;14.60;68.00;;;;;;4980997;28;20237;-72
2021/03/19 11:20:57;;;;;;;8.15;4.13;;;14.60;67.20;;;;;;4984831;28;20226;-70
2021/03/19 11:23:32;;;;;;;6.00;4.20;;;14.30;65.40;;;;;;4988918;28;20296;-71
2021/03/19 11:25:59;;;;;;;5.30;4.40;;;13.70;66.30;;;;;;4984630;28;20296;-70
2021/03/19 11:28:36;;;;;;;6.22;4.90;;;13.20;68.80;;;;;;4989921;28;20224;-72
2021/03/19 11:31:21;;;;;;;8.63;5.05;;;13.00;70.40;;;;;;4985177;28;20244;-71
2021/03/19 11:34:06;;;;;;;6.95;5.30;;;12.90;70.80;;;;;;4983158;28;20668;-72
2021/03/19 11:36:54;;;;;;;5.15;4.65;;;13.10;71.30;;;;;;4980806;28;20201;-70
2021/03/19 11:39:41;;;;;;;7.38;5.38;;;13.40;70.90;;;;;;4987997;28;20216;-71
2021/03/19 11:42:09;;;;;;;8.30;5.40;;;13.30;69.80;;;;;;4989038;28;20207;-71
2021/03/19 11:44:37;;;;;;;6.22;5.07;;;13.00;70.60;;;;;;4989745;28;20958;-71
2021/03/19 11:47:17;;;;;;;6.38;5.05;;;13.00;71.10;;;;;;4985365;28;20697;-71
2021/03/19 11:49:44;;;;;;;6.70;5.10;;;13.10;71.60;;;;;;4988955;28;20214;-70
2021/03/19 11:52:12;;;;;;;8.77;5.00;;;12.90;71.60;;;;;;4991366;28;20296;-70
2021/03/19 11:54:40;;;;;;;7.88;5.55;;;12.50;72.50;;;;;;4982820;28;20289;-72
2021/03/19 11:57:07;;;;;;;6.93;5.20;;;12.10;74.10;;;;;;4992819;28;20238;-71
2021/03/19 11:59:35;;;;;;;8.48;4.60;;;11.90;76.10;;;;;;4988072;28;20231;-70
2021/03/19 12:02:05;;;;;;;5.22;4.72;;;11.70;76.90;;;;;;4990814;28;20246;-72
2021/03/19 12:04:33;;;;;;;7.50;4.97;;;11.60;78.70;;;;;;4980337;28;20278;-71
2021/03/19 12:07:00;;;;;;;5.50;4.60;;;11.50;78.00;;;;;;4985421;28;20290;-71
2021/03/19 12:09:28;;;;;;;10.05;5.03;;;11.50;78.60;;;;;;4980965;28;20253;-71
2021/03/19 12:11:55;;;;;;;4.57;4.15;;;11.30;78.60;;;;;;4990144;28;20201;-72
2021/03/19 12:14:25;;;;;;;7.95;5.72;;;11.20;79.80;;;;;;4984887;28;20641;-73
2021/03/19 12:16:52;;;;;;;7.30;5.40;;;11.00;80.80;;;;;;4986000;28;20275;-71
2021/03/19 12:19:19;;;;;;;6.45;5.10;;;11.00;82.60;;;;;;4974440;28;20662;-72
2021/03/19 12:21:48;;;;;;;5.82;4.80;;;10.90;83.80;;;;;;4982613;28;20630;-69
2021/03/19 12:24:15;;;;;;;7.22;5.32;;;11.00;83.50;;;;;;4985517;28;20215;-72
2021/03/19 12:26:42;;;;;;;6.32;5.30;;;11.00;83.90;;;;;;4980840;28;20212;-72
2021/03/19 12:29:09;;;;;;;7.72;5.40;;;10.80;84.40;;;;;;4983460;28;20225;-70
2021/03/19 12:31:36;;;;;;;5.78;5.03;;;10.70;84.70;;;;;;4987305;28;20225;-71
2021/03/19 12:34:02;;;;;;;6.72;4.63;;;10.60;84.90;;;;;;4985514;28;20210;-73
2021/03/19 12:36:29;;;;;;;6.97;4.70;;;10.50;85.20;;;;;;4985342;28;20210;-70
2021/03/19 12:38:58;;;;;;;6.13;4.53;;;10.40;85.10;;;;;;4983629;28;20202;-71
2021/03/19 12:41:25;;;;;;;8.30;4.93;;;10.30;85.10;;;;;;4993072;28;20260;-71
2021/03/19 12:43:51;;;;;;;7.15;4.47;;;10.20;85.90;;;;;;4986635;28;20205;-74
2021/03/19 12:46:18;;;;;;;6.32;5.18;;;10.00;89.00;;;;;;4993512;28;20197;-71
2021/03/19 12:48:45;;;;;;;7.60;4.95;;;9.80;91.10;;;;;;4978660;28;20304;-72
2021/03/19 12:51:12;;;;;;;6.97;4.45;;;9.70;92.50;;;;;;4987118;28;20260;-72
2021/03/19 12:53:39;;;;;;;8.25;4.55;;;9.50;92.30;;;;;;4984649;28;20292;-72
2021/03/19 12:56:07;;;;;;;4.90;4.30;;;9.30;92.40;;;;;;4985368;28;20641;-70
2021/03/19 12:58:34;;;;;;;6.75;4.95;;;9.20;93.10;;;;;;4984160;28;20664;-72
2021/03/19 13:01:01;;;;;;;6.20;4.57;;;9.40;94.90;;;;;;4993365;28;20240;-73
2021/03/19 13:03:30;;;;;;;9.15;5.35;;;9.50;94.60;;;;;;4984605;28;20330;-72
2021/03/19 13:05:57;;;;;;;5.82;3.80;;;9.60;95.10;;;;;;4991757;28;20663;-71
2021/03/19 13:08:24;;;;;;;6.55;4.47;;;9.80;94.50;;;;;;4977106;28;20309;-72
2021/03/19 13:10:50;;;;;;;6.15;4.85;;;9.90;93.60;;;;;;4987635;28;20222;-70
2021/03/19 13:13:18;;;;;;;7.72;5.70;;;9.90;93.50;;;;;;4984462;28;20209;-72
2021/03/19 13:15:46;;;;;;;10.23;6.80;;;9.90;94.20;;;;;;4983121;28;20206;-71
2021/03/19 13:18:14;;;;;;;6.60;5.40;;;9.90;94.80;;;;;;4988851;28;20197;-73
2021/03/19 13:20:41;;;;;;;10.13;6.82;;;9.90;95.20;;;;;;4990452;28;20312;-71
2021/03/19 13:23:08;;;;;;;8.63;5.55;;;9.80;95.50;;;;;;4985661;28;20202;-71
2021/03/19 13:25:38;;;;;;;10.00;5.22;;;9.90;95.40;;;;;;4979181;28;20226;-71
2021/03/19 13:28:06;;;;;;;7.88;5.25;;;9.90;95.20;;;;;;4977865;28;20232;-72